createdAt,value
2019-01-02T00:02:35.823Z,1.90
2019-01-02T00:07:41.291Z,1.80
2019-01-02T00:12:46.690Z,1.70
2019-01-02T00:17:52.320Z,1.60
2019-01-02T00:22:58.033Z,1.60
2019-01-02T00:28:03.523Z,1.60
2019-01-02T00:33:08.846Z,1.70
2019-01-02T00:38:14.178Z,1.70
2019-01-02T00:43:19.520Z,1.70
2019-01-02T00:48:25.458Z,1.70
2019-01-02T00:53:30.935Z,1.70
2019-01-02T00:58:36.547Z,1.80
2019-01-02T01:03:42.456Z,1.80
2019-01-02T01:08:48.783Z,1.80
2019-01-02T01:13:54.248Z,1.70
2019-01-02T01:18:59.756Z,1.70
2019-01-02T01:24:05.636Z,1.70
2019-01-02T01:29:11.081Z,1.60
2019-01-02T01:34:17.064Z,1.60
2019-01-02T01:39:22.405Z,1.50
2019-01-02T01:44:29.095Z,1.60
2019-01-02T01:49:35.691Z,1.70
2019-01-02T01:54:41.032Z,1.70
2019-01-02T01:59:48.088Z,1.70
2019-01-02T02:04:53.736Z,1.80
2019-01-02T02:09:59.042Z,1.90
2019-01-02T02:15:04.460Z,1.90
2019-01-02T02:20:12.013Z,2.00
2019-01-02T02:25:20.118Z,1.90
2019-01-02T02:30:25.484Z,1.60
2019-01-02T02:35:30.774Z,1.60
2019-01-02T02:40:36.283Z,1.60
2019-01-02T02:45:42.647Z,1.60
2019-01-02T02:50:48.266Z,1.60
2019-01-02T02:55:53.884Z,1.50
2019-01-02T03:00:59.383Z,1.50
2019-01-02T03:06:05.100Z,1.40
2019-01-02T03:11:10.368Z,1.40
2019-01-02T03:16:16.060Z,1.40
2019-01-02T03:21:21.550Z,1.40
2019-01-02T03:26:27.279Z,1.40
2019-01-02T03:31:32.572Z,1.40
2019-01-02T03:41:42.948Z,1.30
2019-01-02T03:46:48.234Z,1.30
2019-01-02T03:51:53.649Z,1.30
2019-01-02T03:56:58.955Z,1.30
2019-01-02T04:02:04.291Z,1.30
2019-01-02T04:07:09.603Z,1.30
2019-01-02T04:12:14.963Z,1.30
2019-01-02T04:17:20.331Z,1.30
2019-01-02T04:22:25.587Z,1.20
2019-01-02T04:27:30.931Z,1.40
2019-01-02T04:32:36.238Z,1.40
2019-01-02T04:37:41.531Z,1.40
2019-01-02T04:42:47.036Z,1.40
2019-01-02T04:47:52.622Z,1.40
2019-01-02T04:52:57.965Z,1.40
2019-01-02T04:58:03.303Z,1.30
2019-01-02T05:03:08.590Z,1.40
2019-01-02T05:08:13.888Z,1.30
2019-01-02T05:13:19.205Z,1.30
2019-01-02T05:18:24.523Z,1.30
2019-01-02T05:23:29.851Z,1.30
2019-01-02T05:28:35.243Z,1.30
2019-01-02T05:33:40.547Z,1.20
2019-01-02T05:38:45.859Z,1.30
2019-01-02T05:43:51.163Z,1.20
2019-01-02T05:48:56.479Z,1.20
2019-01-02T05:54:01.795Z,1.20
2019-01-02T05:59:07.130Z,1.30
2019-01-02T06:04:12.436Z,1.30
2019-01-02T06:09:17.766Z,1.40
2019-01-02T06:14:23.176Z,1.40
2019-01-02T06:19:28.487Z,1.50
2019-01-02T06:24:33.858Z,1.50
2019-01-02T06:29:40.199Z,1.70
2019-01-02T06:34:45.508Z,1.80
2019-01-02T06:39:51.436Z,1.80
2019-01-02T06:44:56.768Z,1.80
2019-01-02T06:50:02.151Z,1.80
2019-01-02T06:55:07.780Z,1.80
2019-01-02T07:00:16.492Z,1.80
2019-01-02T07:05:21.799Z,1.80
2019-01-02T07:10:27.090Z,1.80
2019-01-02T07:15:32.314Z,1.70
2019-01-02T07:20:37.631Z,1.60
2019-01-02T07:25:43.246Z,1.70
2019-01-02T07:30:48.607Z,1.70
2019-01-02T07:36:45.124Z,1.60
2019-01-02T07:42:33.779Z,1.60
2019-01-02T07:48:32.342Z,1.60
2019-01-02T07:54:24.669Z,1.60
2019-01-02T08:00:09.696Z,1.60
2019-01-02T08:05:55.619Z,1.60
2019-01-02T08:11:42.147Z,1.60
2019-01-02T08:17:23.176Z,1.60
2019-01-02T08:23:20.623Z,1.60
2019-01-02T08:29:11.904Z,1.70
2019-01-02T08:34:25.462Z,1.90
2019-01-02T08:40:14.768Z,2.00
2019-01-02T08:45:50.930Z,2.20
2019-01-02T08:51:43.076Z,2.10
2019-01-02T08:57:51.570Z,2.30
2019-01-02T09:03:47.084Z,2.60
2019-01-02T09:09:29.923Z,3.00
2019-01-02T09:15:16.040Z,2.50
2019-01-02T09:20:58.166Z,5.10
2019-01-02T09:26:51.529Z,2.60
2019-01-02T09:32:39.154Z,2.80
2019-01-02T09:38:35.396Z,2.80
2019-01-02T09:43:56.899Z,2.90
2019-01-02T09:49:22.987Z,2.90
2019-01-02T09:55:05.842Z,3.20
2019-01-02T10:00:48.656Z,3.30
2019-01-02T10:06:36.854Z,4.40
2019-01-02T10:12:14.885Z,3.60
2019-01-02T10:17:47.601Z,3.70
2019-01-02T10:23:39.392Z,3.70
2019-01-02T10:29:18.721Z,4.00
2019-01-02T10:35:05.073Z,4.20
2019-01-02T10:40:55.017Z,3.70
2019-01-02T10:46:40.689Z,3.40
2019-01-02T10:52:29.677Z,3.30
2019-01-02T10:58:29.237Z,3.30
2019-01-02T11:04:03.894Z,3.30
2019-01-02T11:09:47.133Z,3.00
2019-01-02T11:15:21.794Z,3.10
2019-01-02T11:21:08.538Z,3.10
2019-01-02T11:26:55.756Z,3.00
2019-01-02T11:32:46.819Z,2.90
2019-01-02T11:38:35.112Z,2.60
2019-01-02T11:44:21.141Z,1.80
2019-01-02T11:49:24.648Z,1.00
2019-01-02T11:54:30.549Z,0.40
2019-01-02T11:59:37.561Z,0.50
2019-01-02T12:04:44.102Z,0.60
2019-01-02T12:09:50.744Z,0.70
2019-01-02T12:14:56.156Z,0.90
2019-01-02T12:20:02.095Z,1.10
2019-01-02T12:25:07.652Z,1.50
2019-01-02T12:30:14.960Z,1.70
2019-01-02T12:35:20.343Z,1.70
2019-01-02T12:40:25.940Z,1.50
2019-01-02T12:45:31.289Z,1.40
2019-01-02T12:50:36.661Z,1.30
2019-01-02T12:55:42.632Z,1.40
2019-01-02T13:00:53.274Z,1.40
2019-01-02T13:06:32.285Z,1.50
2019-01-02T13:12:24.746Z,1.60
2019-01-02T13:17:57.489Z,1.70
2019-01-02T13:23:23.688Z,1.90
2019-01-02T13:28:53.469Z,2.10
2019-01-02T13:34:31.578Z,2.20
2019-01-02T13:40:12.661Z,2.40
2019-01-02T13:45:47.441Z,2.50
2019-01-02T13:51:15.163Z,2.60
2019-01-02T13:56:22.768Z,2.40
2019-01-02T14:01:28.121Z,1.70
2019-01-02T14:11:38.503Z,1.20
2019-01-02T14:16:43.819Z,0.70
2019-01-02T14:21:49.240Z,0.20
2019-01-02T14:26:54.572Z,-0.20
2019-01-02T14:42:09.112Z,-0.10
2019-01-02T14:47:14.483Z,0.00
2019-01-02T14:52:19.788Z,0.10
2019-01-02T14:57:25.108Z,0.20
2019-01-02T15:02:30.468Z,0.20
2019-01-02T15:07:35.783Z,0.20
2019-01-02T15:12:41.264Z,0.10
2019-01-02T15:17:46.641Z,0.10
2019-01-02T15:22:52.078Z,0.10
2019-01-02T15:28:00.471Z,0.10
2019-01-02T15:33:05.771Z,0.10
2019-01-02T15:38:12.149Z,0.10
2019-01-02T15:43:18.648Z,0.20
2019-01-02T15:48:23.969Z,0.20
2019-01-02T15:53:29.427Z,0.30
2019-01-02T15:58:34.761Z,0.20
2019-01-02T16:03:40.156Z,0.20
2019-01-02T16:08:45.447Z,0.20
2019-01-02T16:13:50.755Z,0.10
2019-01-02T16:18:56.175Z,0.10
2019-01-02T16:24:01.491Z,0.00
2019-01-02T16:29:06.884Z,0.00
2019-01-02T16:34:13.156Z,-0.10
2019-01-02T16:39:18.484Z,-0.10
2019-01-02T16:44:23.808Z,-0.20
2019-01-02T16:49:29.110Z,-0.10
2019-01-02T16:54:35.263Z,-0.20
2019-01-02T16:59:41.551Z,-0.20
2019-01-02T17:04:46.871Z,-0.20
2019-01-02T17:09:52.297Z,-0.20
2019-01-02T17:14:57.591Z,-0.30
2019-01-02T17:25:09.780Z,-0.20
2019-01-02T17:30:15.186Z,-0.30
2019-01-02T17:35:20.447Z,-0.40
2019-01-02T17:40:26.732Z,-0.50
2019-01-02T17:45:32.418Z,-0.50
2019-01-02T17:50:38.179Z,-0.40
2019-01-02T17:55:45.062Z,-0.40
2019-01-02T18:00:50.674Z,-0.50
2019-01-02T18:05:56.280Z,-0.50
2019-01-02T18:16:06.728Z,-0.40
2019-01-02T18:21:12.104Z,-0.30
2019-01-02T18:26:18.918Z,-0.20
2019-01-02T18:31:24.202Z,-0.20
2019-01-02T18:41:34.120Z,0.00
2019-01-02T18:46:39.769Z,0.00
2019-01-02T18:51:45.281Z,0.00
2019-01-02T18:56:50.847Z,0.00
2019-01-02T19:01:56.471Z,0.00
2019-01-02T19:07:01.879Z,0.00
2019-01-02T19:12:07.785Z,0.00
2019-01-02T19:17:13.439Z,0.00
2019-01-02T19:22:18.719Z,0.10
2019-01-02T19:27:24.048Z,0.10
2019-01-02T19:32:29.382Z,0.20
2019-01-02T19:37:34.671Z,0.10
2019-01-02T19:42:40.086Z,0.10
2019-01-02T19:47:45.414Z,0.10
2019-01-02T19:52:51.016Z,0.00
2019-01-02T19:57:56.323Z,0.00
2019-01-02T20:03:01.711Z,0.00
2019-01-02T20:08:07.059Z,0.00
2019-01-02T20:13:12.467Z,-0.20
2019-01-02T20:18:17.820Z,-0.20
2019-01-02T20:23:23.136Z,-0.30
2019-01-02T20:28:28.728Z,-0.60
2019-01-02T20:38:38.793Z,-0.50
2019-01-02T20:43:44.207Z,-0.60
2019-01-02T20:48:49.590Z,-0.30
2019-01-02T20:53:55.038Z,-0.30
2019-01-02T20:59:00.346Z,-0.30
2019-01-02T21:04:05.668Z,-0.20
2019-01-02T21:09:11.016Z,-0.10
2019-01-02T21:14:16.531Z,-0.10
2019-01-02T21:19:21.939Z,-0.20
2019-01-02T21:24:27.343Z,-0.30
2019-01-02T21:29:32.712Z,-0.30
2019-01-02T21:34:38.044Z,-0.20
2019-01-02T21:39:43.356Z,-0.30
2019-01-02T21:44:48.971Z,-0.50
2019-01-02T21:49:55.337Z,-0.70
2019-01-02T21:55:00.833Z,-0.90
2019-01-02T22:00:09.443Z,-1.10
2019-01-02T22:05:15.271Z,-1.30
2019-01-02T22:10:20.789Z,-1.40
2019-01-02T22:20:30.820Z,-1.40
2019-01-02T22:25:36.171Z,-1.40
2019-01-02T22:30:41.899Z,-1.40
2019-01-02T22:40:52.243Z,-1.30
2019-01-02T22:51:02.236Z,-1.30
2019-01-02T22:56:08.033Z,-1.20
2019-01-02T23:01:29.028Z,-1.30
2019-01-02T23:07:12.108Z,-1.30
2019-01-02T23:12:34.956Z,-1.30
2019-01-02T23:18:11.499Z,-1.30
2019-01-02T23:23:50.910Z,-1.20
2019-01-02T23:29:30.596Z,-1.10
2019-01-02T23:40:17.358Z,-1.00
2019-01-02T23:45:50.947Z,-1.00
2019-01-02T23:51:25.189Z,-1.00
2019-01-02T23:57:01.639Z,-0.90
